createdAt,value
2023-06-10T00:00:39.980Z,64.00
2023-06-10T00:03:27.201Z,64.14
2023-06-10T00:05:53.833Z,64.10
2023-06-10T00:08:20.461Z,64.44
2023-06-10T00:10:47.123Z,64.45
2023-06-10T00:13:14.226Z,64.62
2023-06-10T00:15:40.953Z,64.80
2023-06-10T00:18:10.522Z,64.98
2023-06-10T00:20:38.390Z,65.22
2023-06-10T00:23:07.367Z,65.33
2023-06-10T00:25:33.989Z,65.33
2023-06-10T00:28:00.616Z,65.54
2023-06-10T00:30:29.655Z,65.58
2023-06-10T00:32:56.661Z,65.50
2023-06-10T00:35:23.446Z,65.64
2023-06-10T00:37:50.248Z,65.65
2023-06-10T00:40:17.334Z,65.55
2023-06-10T00:42:44.078Z,65.55
2023-06-10T00:45:11.227Z,65.24
2023-06-10T00:47:39.412Z,65.14
2023-06-10T00:50:06.952Z,64.65
2023-06-10T00:52:35.982Z,64.50
2023-06-10T00:55:02.757Z,64.02
2023-06-10T00:57:29.814Z,63.72
2023-06-10T00:59:57.757Z,63.09
2023-06-10T01:02:24.520Z,62.47
2023-06-10T01:04:52.802Z,62.05
2023-06-10T01:07:47.193Z,61.26
2023-06-10T01:10:19.281Z,60.24
2023-06-10T01:12:50.825Z,59.92
2023-06-10T01:15:17.824Z,59.45
2023-06-10T01:18:02.960Z,59.13
2023-06-10T01:20:34.378Z,58.76
2023-06-10T01:23:03.417Z,58.14
2023-06-10T01:25:33.592Z,57.33
2023-06-10T01:28:07.861Z,57.25
2023-06-10T01:31:00.927Z,56.64
2023-06-10T01:33:34.191Z,55.73
2023-06-10T01:36:03.971Z,55.57
2023-06-10T01:38:37.202Z,55.31
2023-06-10T01:41:04.248Z,54.92
2023-06-10T01:43:34.576Z,54.67
2023-06-10T01:46:01.206Z,54.64
2023-06-10T01:48:27.828Z,54.54
2023-06-10T01:50:56.506Z,54.15
2023-06-10T01:53:23.753Z,54.01
2023-06-10T01:55:50.586Z,53.93
2023-06-10T01:58:17.576Z,53.97
2023-06-10T02:00:45.183Z,53.93
2023-06-10T02:03:12.092Z,53.60
2023-06-10T02:05:39.540Z,53.12
2023-06-10T02:08:06.302Z,53.10
2023-06-10T02:10:32.936Z,53.06
2023-06-10T02:12:59.628Z,53.46
2023-06-10T02:15:26.915Z,53.31
2023-06-10T02:17:55.251Z,53.32
2023-06-10T02:20:22.244Z,53.28
2023-06-10T02:22:51.357Z,53.16
2023-06-10T02:25:18.156Z,52.97
2023-06-10T02:27:46.033Z,53.21
2023-06-10T02:30:14.029Z,53.68
2023-06-10T02:32:41.770Z,53.65
2023-06-10T02:35:12.934Z,53.67
2023-06-10T02:37:39.688Z,53.64
2023-06-10T02:40:07.471Z,53.48
2023-06-10T02:42:34.756Z,53.35
2023-06-10T02:45:02.060Z,53.65
2023-06-10T02:47:38.448Z,53.85
2023-06-10T02:50:05.719Z,53.57
2023-06-10T02:52:34.276Z,53.74
2023-06-10T02:55:01.108Z,53.64
2023-06-10T02:57:28.200Z,53.75
2023-06-10T02:59:55.249Z,53.76
2023-06-10T03:02:28.715Z,53.98
2023-06-10T03:04:56.339Z,54.25
2023-06-10T03:07:23.691Z,54.28
2023-06-10T03:09:51.030Z,54.33
2023-06-10T03:12:18.398Z,54.30
2023-06-10T03:14:47.167Z,54.38
2023-06-10T03:17:13.974Z,54.52
2023-06-10T03:19:42.251Z,54.73
2023-06-10T03:22:14.918Z,54.80
2023-06-10T03:24:58.237Z,54.92
2023-06-10T03:27:25.624Z,55.01
2023-06-10T03:29:53.461Z,55.18
2023-06-10T03:32:20.492Z,55.13
2023-06-10T03:34:48.174Z,55.32
2023-06-10T03:37:15.829Z,55.34
2023-06-10T03:39:42.801Z,55.35
2023-06-10T03:42:09.590Z,55.25
2023-06-10T03:44:37.012Z,55.63
2023-06-10T03:47:03.852Z,55.67
2023-06-10T03:49:30.774Z,55.77
2023-06-10T03:52:00.620Z,55.79
2023-06-10T03:54:27.957Z,55.85
2023-06-10T03:56:54.714Z,56.03
2023-06-10T03:59:21.293Z,55.93
2023-06-10T04:01:48.057Z,55.80
2023-06-10T04:04:18.395Z,56.07
2023-06-10T04:06:45.413Z,55.88
2023-06-10T04:09:12.272Z,55.61
2023-06-10T04:11:39.685Z,55.17
2023-06-10T04:14:06.455Z,54.95
2023-06-10T04:16:33.363Z,55.03
2023-06-10T04:19:01.110Z,55.02
2023-06-10T04:21:28.826Z,54.31
2023-06-10T04:23:55.637Z,53.82
2023-06-10T04:26:22.621Z,53.78
2023-06-10T04:28:49.267Z,53.40
2023-06-10T04:31:16.317Z,52.77
2023-06-10T04:33:43.814Z,52.79
2023-06-10T04:36:14.163Z,52.58
2023-06-10T04:39:19.463Z,52.46
2023-06-10T04:41:47.394Z,52.59
2023-06-10T04:44:14.304Z,52.36
2023-06-10T04:46:43.010Z,52.19
2023-06-10T04:49:11.114Z,52.29
2023-06-10T04:51:38.965Z,52.11
2023-06-10T04:54:06.044Z,52.09
2023-06-10T04:56:33.342Z,52.15
2023-06-10T04:59:01.288Z,51.90
2023-06-10T05:01:30.418Z,52.40
2023-06-10T05:03:57.159Z,52.38
2023-06-10T05:06:23.980Z,52.61
2023-06-10T05:08:50.939Z,52.50
2023-06-10T05:11:18.107Z,52.56
2023-06-10T05:13:45.309Z,52.42
2023-06-10T05:16:17.363Z,51.90
2023-06-10T05:18:44.263Z,51.88
2023-06-10T05:21:11.167Z,52.11
2023-06-10T05:23:37.981Z,52.12
2023-06-10T05:26:04.539Z,52.04
2023-06-10T05:28:31.224Z,51.93
2023-06-10T05:30:57.837Z,51.73
2023-06-10T05:33:24.479Z,51.57
2023-06-10T05:35:51.195Z,51.39
2023-06-10T05:38:17.874Z,51.51
2023-06-10T05:40:44.577Z,51.61
2023-06-10T05:43:11.874Z,51.90
2023-06-10T05:45:38.706Z,51.37
2023-06-10T05:48:05.949Z,51.30
2023-06-10T05:50:38.715Z,51.24
2023-06-10T05:53:07.527Z,51.11
2023-06-10T05:55:37.739Z,51.24
2023-06-10T05:58:04.985Z,51.33
2023-06-10T06:00:31.559Z,51.04
2023-06-10T06:02:59.765Z,50.47
2023-06-10T06:05:26.884Z,50.48
2023-06-10T06:07:53.728Z,50.29
2023-06-10T06:10:20.478Z,50.78
2023-06-10T06:12:52.346Z,50.96
2023-06-10T06:15:19.271Z,50.57
2023-06-10T06:17:48.455Z,50.58
2023-06-10T06:20:16.485Z,50.09
2023-06-10T06:22:44.431Z,50.30
2023-06-10T06:25:11.811Z,49.23
2023-06-10T06:27:39.084Z,49.35
2023-06-10T06:30:06.281Z,49.86
2023-06-10T06:32:33.728Z,49.66
2023-06-10T06:35:00.537Z,49.68
2023-06-10T06:37:27.199Z,49.33
2023-06-10T06:40:04.497Z,49.48
2023-06-10T06:42:31.515Z,48.91
2023-06-10T06:45:03.354Z,49.09
2023-06-10T06:47:30.068Z,49.44
2023-06-10T06:49:56.733Z,49.32
2023-06-10T06:52:23.519Z,49.00
2023-06-10T06:54:50.452Z,49.33
2023-06-10T06:57:17.155Z,49.24
2023-06-10T06:59:44.165Z,48.60
2023-06-10T07:02:10.902Z,48.08
2023-06-10T07:04:41.397Z,48.29
2023-06-10T07:07:09.858Z,48.36
2023-06-10T07:09:36.519Z,47.81
2023-06-10T07:12:04.026Z,47.75
2023-06-10T07:14:30.958Z,47.90
2023-06-10T07:16:57.915Z,47.13
2023-06-10T07:19:24.570Z,47.20
2023-06-10T07:21:51.251Z,46.80
2023-06-10T07:24:18.158Z,46.72
2023-06-10T07:26:45.149Z,46.63
2023-06-10T07:29:12.012Z,46.11
2023-06-10T07:31:39.017Z,46.26
2023-06-10T07:34:05.638Z,45.91
2023-06-10T07:36:32.700Z,46.12
2023-06-10T07:38:59.556Z,46.36
2023-06-10T07:41:26.435Z,46.85
2023-06-10T07:43:56.572Z,46.12
2023-06-10T07:46:24.282Z,45.77
2023-06-10T07:48:51.822Z,44.99
2023-06-10T07:51:18.776Z,44.84
2023-06-10T07:53:45.641Z,44.84
2023-06-10T07:56:12.514Z,44.50
2023-06-10T07:58:39.338Z,44.52
2023-06-10T08:01:06.143Z,43.64
2023-06-10T08:03:33.173Z,43.24
2023-06-10T08:06:00.159Z,43.92
2023-06-10T08:08:26.876Z,44.08
2023-06-10T08:10:53.777Z,43.99
2023-06-10T08:13:20.373Z,43.56
2023-06-10T08:15:50.955Z,43.36
2023-06-10T08:18:18.047Z,42.94
2023-06-10T08:20:44.725Z,41.99
2023-06-10T08:23:11.460Z,40.41
2023-06-10T08:25:38.062Z,40.74
2023-06-10T08:28:05.180Z,41.00
2023-06-10T08:30:31.952Z,41.23
2023-06-10T08:32:58.701Z,42.43
2023-06-10T08:35:25.490Z,42.33
2023-06-10T08:37:52.574Z,42.15
2023-06-10T08:40:19.956Z,41.79
2023-06-10T08:42:52.833Z,41.82
2023-06-10T08:45:20.517Z,42.00
2023-06-10T08:47:52.396Z,41.61
2023-06-10T08:50:19.815Z,41.21
2023-06-10T08:52:50.715Z,40.94
2023-06-10T08:55:32.373Z,40.10
2023-06-10T08:58:03.393Z,39.65
2023-06-10T09:00:31.661Z,38.73
2023-06-10T09:03:01.681Z,38.59
2023-06-10T09:05:37.681Z,40.41
2023-06-10T09:08:09.665Z,41.18
2023-06-10T09:10:36.956Z,41.47
2023-06-10T09:13:03.868Z,40.97
2023-06-10T09:15:30.857Z,41.21
2023-06-10T09:17:57.775Z,40.84
2023-06-10T09:20:24.982Z,41.01
2023-06-10T09:22:52.326Z,40.95
2023-06-10T09:25:20.227Z,40.79
2023-06-10T09:27:54.259Z,40.22
2023-06-10T09:30:32.361Z,40.08
2023-06-10T09:33:03.309Z,39.14
2023-06-10T09:35:31.573Z,38.75
2023-06-10T09:38:00.138Z,38.40
2023-06-10T09:40:28.360Z,38.15
2023-06-10T09:42:59.458Z,38.35
2023-06-10T09:45:33.388Z,39.15
2023-06-10T09:48:01.397Z,39.09
2023-06-10T09:50:28.681Z,39.18
2023-06-10T09:52:57.198Z,39.75
2023-06-10T09:55:24.419Z,39.68
2023-06-10T09:57:55.244Z,39.18
2023-06-10T10:00:29.488Z,38.48
2023-06-10T10:02:56.501Z,38.20
2023-06-10T10:05:24.107Z,37.68
2023-06-10T10:07:52.808Z,37.61
2023-06-10T10:10:21.606Z,36.77
2023-06-10T10:12:49.340Z,37.25
2023-06-10T10:15:18.183Z,37.25
2023-06-10T10:18:05.304Z,37.19
2023-06-10T10:20:35.197Z,37.44
2023-06-10T10:23:08.749Z,37.69
2023-06-10T10:25:38.773Z,36.65
2023-06-10T10:28:13.197Z,36.22
2023-06-10T10:30:49.615Z,34.64
2023-06-10T10:33:44.849Z,34.85
2023-06-10T10:36:12.922Z,34.60
2023-06-10T10:38:40.105Z,33.88
2023-06-10T10:41:08.353Z,33.88
2023-06-10T10:43:35.600Z,34.41
2023-06-10T10:46:07.207Z,33.89
2023-06-10T10:48:39.288Z,33.80
2023-06-10T10:51:06.402Z,34.01
2023-06-10T10:53:33.600Z,34.50
2023-06-10T10:56:08.522Z,34.23
2023-06-10T10:58:36.064Z,33.65
2023-06-10T11:01:16.131Z,34.33
2023-06-10T11:03:46.099Z,34.90
2023-06-10T11:06:16.060Z,35.05
2023-06-10T11:08:43.276Z,34.66
2023-06-10T11:11:24.318Z,34.55
2023-06-10T11:14:09.389Z,34.50
2023-06-10T11:16:43.874Z,33.70
2023-06-10T11:19:31.747Z,34.12
2023-06-10T11:22:02.651Z,34.24
2023-06-10T11:24:30.927Z,34.62
2023-06-10T11:27:17.919Z,33.20
2023-06-10T11:30:06.351Z,33.08
2023-06-10T11:32:35.147Z,32.97
2023-06-10T11:35:06.009Z,33.15
2023-06-10T11:37:33.084Z,33.02
2023-06-10T11:39:59.934Z,32.70
2023-06-10T11:42:26.978Z,32.35
2023-06-10T11:44:54.887Z,32.31
2023-06-10T11:47:22.751Z,32.35
2023-06-10T11:49:59.229Z,32.77
2023-06-10T11:52:31.743Z,32.99
2023-06-10T11:54:58.672Z,31.37
2023-06-10T11:57:25.572Z,31.21
2023-06-10T11:59:52.314Z,31.16
2023-06-10T12:02:19.827Z,31.25
2023-06-10T12:04:46.749Z,30.88
2023-06-10T12:07:20.421Z,30.65
2023-06-10T12:09:47.413Z,30.73
2023-06-10T12:12:14.320Z,30.35
2023-06-10T12:14:57.262Z,30.46
2023-06-10T12:17:44.302Z,30.59
2023-06-10T12:20:27.179Z,30.86
2023-06-10T12:22:53.893Z,31.13
2023-06-10T12:25:27.325Z,29.98
2023-06-10T12:27:56.534Z,30.13
2023-06-10T12:30:26.714Z,30.21
2023-06-10T12:32:53.874Z,30.42
2023-06-10T12:35:25.369Z,30.74
2023-06-10T12:38:13.854Z,31.34
2023-06-10T12:40:41.548Z,31.96
2023-06-10T12:43:08.742Z,32.55
2023-06-10T12:45:37.174Z,32.58
2023-06-10T12:48:21.570Z,33.36
2023-06-10T12:50:58.927Z,32.68
2023-06-10T12:53:29.579Z,32.21
2023-06-10T12:55:56.527Z,32.03
2023-06-10T12:58:23.715Z,32.03
2023-06-10T13:00:53.053Z,31.66
2023-06-10T13:03:19.726Z,31.56
2023-06-10T13:05:46.379Z,31.60
2023-06-10T13:08:13.041Z,31.73
2023-06-10T13:10:39.643Z,32.39
2023-06-10T13:13:08.457Z,31.48
2023-06-10T13:15:41.555Z,31.65
2023-06-10T13:18:09.730Z,31.27
2023-06-10T13:20:36.544Z,31.63
2023-06-10T13:23:03.182Z,31.92
2023-06-10T13:25:29.814Z,32.32
2023-06-10T13:27:56.925Z,32.14
2023-06-10T13:30:23.510Z,32.16
2023-06-10T13:32:50.520Z,32.30
2023-06-10T13:35:17.383Z,32.82
2023-06-10T13:37:43.973Z,33.41
2023-06-10T13:40:11.174Z,33.81
2023-06-10T13:42:38.173Z,33.87
2023-06-10T13:45:06.561Z,33.80
2023-06-10T13:47:33.351Z,33.96
2023-06-10T13:50:00.317Z,33.73
2023-06-10T13:52:27.038Z,33.69
2023-06-10T13:54:53.566Z,33.31
2023-06-10T13:57:20.228Z,32.60
2023-06-10T13:59:46.894Z,32.82
2023-06-10T14:02:13.694Z,33.53
2023-06-10T14:04:40.690Z,34.14
2023-06-10T14:07:13.272Z,34.18
2023-06-10T14:09:39.783Z,34.10
2023-06-10T14:12:07.058Z,33.95
2023-06-10T14:14:33.721Z,33.50
2023-06-10T14:17:00.699Z,33.51
2023-06-10T14:19:27.828Z,33.01
2023-06-10T14:21:55.852Z,32.38
2023-06-10T14:24:22.569Z,32.10
2023-06-10T14:26:49.599Z,32.36
2023-06-10T14:29:17.559Z,33.10
2023-06-10T14:31:44.227Z,33.57
2023-06-10T14:34:11.024Z,33.64
2023-06-10T14:36:37.841Z,33.07
2023-06-10T14:39:06.409Z,33.60
2023-06-10T14:41:38.708Z,33.88
2023-06-10T14:44:05.406Z,34.11
2023-06-10T14:46:32.174Z,34.29
2023-06-10T14:49:00.088Z,34.08
2023-06-10T14:51:26.732Z,34.24
2023-06-10T14:53:53.264Z,34.43
2023-06-10T14:56:22.843Z,34.35
2023-06-10T14:58:49.417Z,33.78
2023-06-10T15:01:15.974Z,33.96
2023-06-10T15:03:42.710Z,34.03
2023-06-10T15:06:09.344Z,34.23
2023-06-10T15:08:36.345Z,33.76
2023-06-10T15:11:03.331Z,33.49
2023-06-10T15:13:30.125Z,33.89
2023-06-10T15:15:56.929Z,34.16
2023-06-10T15:18:23.934Z,34.43
2023-06-10T15:20:53.487Z,34.69
2023-06-10T15:23:20.289Z,34.62
2023-06-10T15:25:49.617Z,34.40
2023-06-10T15:28:17.894Z,34.47
2023-06-10T15:30:44.600Z,34.72
2023-06-10T15:33:12.406Z,35.06
2023-06-10T15:35:39.223Z,35.67
2023-06-10T15:38:08.377Z,35.88
2023-06-10T15:40:35.953Z,35.78
2023-06-10T15:43:02.801Z,35.94
2023-06-10T15:45:35.674Z,36.07
2023-06-10T15:48:02.748Z,35.77
2023-06-10T15:50:29.558Z,35.66
2023-06-10T15:52:56.167Z,36.01
2023-06-10T15:55:23.005Z,36.41
2023-06-10T15:57:50.197Z,36.66
2023-06-10T16:00:20.525Z,36.74
2023-06-10T16:02:47.810Z,37.02
2023-06-10T16:05:14.742Z,37.16
2023-06-10T16:07:41.703Z,36.94
2023-06-10T16:12:58.671Z,37.40
2023-06-10T16:15:25.558Z,37.24
2023-06-10T16:17:52.295Z,37.71
2023-06-10T16:20:19.105Z,38.28
2023-06-10T16:22:47.179Z,38.58
2023-06-10T16:25:14.271Z,38.57
2023-06-10T16:27:45.079Z,38.44
2023-06-10T16:30:14.986Z,38.70
2023-06-10T16:32:41.661Z,38.96
2023-06-10T16:35:08.751Z,39.11
2023-06-10T16:37:35.914Z,39.36
2023-06-10T16:40:02.950Z,39.99
2023-06-10T16:42:29.719Z,39.72
2023-06-10T16:44:56.383Z,39.73
2023-06-10T16:47:23.583Z,39.69
2023-06-10T16:49:53.761Z,40.03
2023-06-10T16:52:20.853Z,39.18
2023-06-10T16:54:47.545Z,38.96
2023-06-10T16:57:14.236Z,39.14
2023-06-10T16:59:40.835Z,39.13
2023-06-10T17:02:07.494Z,39.28
2023-06-10T17:04:35.332Z,39.65
2023-06-10T17:07:02.423Z,39.75
2023-06-10T17:09:32.312Z,40.01
2023-06-10T17:11:59.902Z,39.96
2023-06-10T17:14:29.368Z,40.42
2023-06-10T17:16:56.439Z,40.73
2023-06-10T17:19:23.217Z,40.77
2023-06-10T17:21:50.076Z,40.93
2023-06-10T17:24:17.038Z,41.00
2023-06-10T17:26:44.072Z,41.42
2023-06-10T17:29:11.583Z,41.56
2023-06-10T17:31:38.724Z,41.75
2023-06-10T17:34:05.455Z,41.78
2023-06-10T17:36:32.590Z,41.92
2023-06-10T17:38:59.342Z,41.98
2023-06-10T17:41:26.628Z,42.00
2023-06-10T17:43:53.494Z,41.68
2023-06-10T17:46:20.290Z,41.22
2023-06-10T17:48:48.019Z,40.79
2023-06-10T17:51:15.188Z,40.94
2023-06-10T17:53:41.963Z,41.07
2023-06-10T17:56:10.844Z,40.70
2023-06-10T17:58:37.896Z,40.73
2023-06-10T18:01:05.803Z,40.97
2023-06-10T18:03:33.230Z,40.93
2023-06-10T18:06:00.449Z,40.84
2023-06-10T18:08:29.253Z,40.76
2023-06-10T18:10:55.855Z,41.12
2023-06-10T18:13:22.525Z,41.01
2023-06-10T18:15:49.204Z,41.31
2023-06-10T18:18:23.177Z,41.49
2023-06-10T18:20:50.608Z,41.54
2023-06-10T18:23:17.485Z,41.82
2023-06-10T18:25:44.096Z,42.08
2023-06-10T18:28:10.883Z,42.35
2023-06-10T18:30:37.629Z,43.69
2023-06-10T18:33:04.227Z,44.64
2023-06-10T18:35:30.976Z,45.41
2023-06-10T18:37:57.586Z,45.51
2023-06-10T18:40:24.177Z,46.02
2023-06-10T18:42:51.144Z,46.16
2023-06-10T18:45:17.916Z,46.42
2023-06-10T18:47:57.392Z,46.75
2023-06-10T18:50:25.731Z,47.07
2023-06-10T18:52:52.529Z,47.03
2023-06-10T18:55:19.590Z,47.56
2023-06-10T18:57:46.401Z,47.46
2023-06-10T19:00:14.133Z,47.93
2023-06-10T19:02:44.845Z,47.92
2023-06-10T19:05:14.062Z,48.41
2023-06-10T19:07:41.029Z,48.42
2023-06-10T19:10:08.472Z,48.63
2023-06-10T19:12:35.574Z,48.97
2023-06-10T19:15:03.495Z,49.07
2023-06-10T19:17:33.475Z,49.10
2023-06-10T19:20:00.998Z,49.50
2023-06-10T19:22:28.141Z,49.53
2023-06-10T19:25:03.414Z,49.89
2023-06-10T19:27:30.445Z,49.94
2023-06-10T19:29:58.056Z,50.24
2023-06-10T19:32:27.808Z,50.25
2023-06-10T19:34:55.047Z,50.54
2023-06-10T19:37:22.052Z,50.63
2023-06-10T19:39:48.901Z,51.07
2023-06-10T19:42:15.969Z,51.04
2023-06-10T19:44:42.913Z,51.42
2023-06-10T19:47:09.513Z,51.49
2023-06-10T19:49:36.231Z,51.71
2023-06-10T19:52:06.791Z,51.86
2023-06-10T19:54:34.884Z,51.92
2023-06-10T19:57:03.217Z,52.34
2023-06-10T19:59:30.748Z,52.44
2023-06-10T20:01:57.938Z,52.54
2023-06-10T20:04:24.970Z,52.69
2023-06-10T20:06:55.956Z,53.10
2023-06-10T20:09:22.931Z,53.23
2023-06-10T20:11:49.889Z,53.29
2023-06-10T20:14:16.780Z,53.46
2023-06-10T20:16:47.463Z,53.71
2023-06-10T20:19:14.769Z,54.00
2023-06-10T20:21:41.608Z,54.18
2023-06-10T20:24:08.923Z,54.46
2023-06-10T20:26:36.010Z,54.64
2023-06-10T20:29:03.463Z,54.84
2023-06-10T20:31:30.582Z,55.05
2023-06-10T20:33:57.430Z,55.20
2023-06-10T20:36:24.246Z,55.23
2023-06-10T20:38:51.155Z,55.45
2023-06-10T20:41:18.581Z,55.65
2023-06-10T20:43:47.476Z,56.04
2023-06-10T20:46:14.310Z,56.08
2023-06-10T20:48:41.166Z,56.35
2023-06-10T20:51:07.890Z,56.38
2023-06-10T20:53:34.816Z,56.63
2023-06-10T20:56:01.760Z,56.71
2023-06-10T20:58:28.493Z,56.84
2023-06-10T21:00:55.260Z,57.17
2023-06-10T21:03:22.154Z,57.18
2023-06-10T21:05:48.832Z,57.32
2023-06-10T21:08:16.243Z,57.38
2023-06-10T21:10:42.947Z,57.34
2023-06-10T21:13:10.274Z,57.58
2023-06-10T21:15:37.006Z,57.55
2023-06-10T21:18:04.001Z,57.99
2023-06-10T21:20:30.778Z,57.93
2023-06-10T21:22:57.509Z,58.21
2023-06-10T21:25:24.181Z,58.08
2023-06-10T21:27:51.949Z,58.40
2023-06-10T21:30:18.658Z,58.51
2023-06-10T21:32:45.456Z,58.42
2023-06-10T21:35:13.450Z,58.63
2023-06-10T21:37:40.208Z,58.71
2023-06-10T21:40:07.554Z,58.87
2023-06-10T21:42:34.518Z,58.98
2023-06-10T21:45:01.218Z,59.01
2023-06-10T21:47:27.836Z,59.17
2023-06-10T21:49:54.378Z,59.15
2023-06-10T21:52:20.943Z,59.29
2023-06-10T21:54:47.704Z,59.52
2023-06-10T21:57:14.469Z,59.70
2023-06-10T21:59:43.632Z,59.78
2023-06-10T22:02:10.353Z,60.00
2023-06-10T22:04:37.069Z,60.10
2023-06-10T22:07:05.018Z,60.22
2023-06-10T22:09:31.692Z,60.43
2023-06-10T22:11:58.554Z,60.58
2023-06-10T22:14:25.314Z,60.77
2023-06-10T22:16:52.943Z,60.90
2023-06-10T22:19:20.286Z,61.20
2023-06-10T22:21:46.931Z,61.28
2023-06-10T22:24:13.592Z,61.46
2023-06-10T22:26:52.765Z,61.63
2023-06-10T22:29:20.980Z,61.70
2023-06-10T22:31:47.689Z,61.88
2023-06-10T22:34:14.554Z,61.99
2023-06-10T22:36:41.266Z,62.11
2023-06-10T22:39:12.335Z,62.02
2023-06-10T22:41:39.897Z,62.28
2023-06-10T22:44:06.752Z,62.25
2023-06-10T22:46:33.699Z,62.53
2023-06-10T22:49:00.729Z,62.68
2023-06-10T22:51:27.592Z,62.92
2023-06-10T22:53:54.259Z,62.94
2023-06-10T22:56:21.202Z,63.04
2023-06-10T22:58:47.749Z,63.11
2023-06-10T23:01:15.103Z,63.38
2023-06-10T23:03:41.742Z,63.53
2023-06-10T23:06:08.411Z,63.63
2023-06-10T23:08:35.119Z,63.60
2023-06-10T23:11:01.665Z,63.78
2023-06-10T23:13:28.414Z,64.07
2023-06-10T23:15:55.027Z,64.23
2023-06-10T23:18:22.428Z,64.60
2023-06-10T23:20:49.265Z,64.61
2023-06-10T23:23:16.854Z,64.61
2023-06-10T23:25:45.235Z,64.77
2023-06-10T23:28:12.377Z,64.72
2023-06-10T23:30:39.062Z,64.88
2023-06-10T23:33:06.426Z,64.97
2023-06-10T23:35:33.294Z,65.01
2023-06-10T23:37:59.935Z,65.04
2023-06-10T23:40:26.535Z,64.89
2023-06-10T23:42:54.279Z,64.97
2023-06-10T23:45:21.172Z,64.88
2023-06-10T23:47:48.398Z,64.68
2023-06-10T23:50:15.131Z,64.52
2023-06-10T23:52:44.319Z,64.31
2023-06-10T23:55:11.403Z,64.16
2023-06-10T23:57:38.279Z,64.08
